sensor_id;sensor_type;location;lat;lon;timestamp;P1;durP1;ratioP1;P2;durP2;ratioP2
5022;SDS011;2530;47.990;7.866;2023-07-20T00:01:03;4.00;;;2.60;;
5022;SDS011;2530;47.990;7.866;2023-07-20T00:03:29;2.92;;;2.17;;
5022;SDS011;2530;47.990;7.866;2023-07-20T00:05:54;3.50;;;2.50;;
5022;SDS011;2530;47.990;7.866;2023-07-20T00:08:20;2.80;;;2.50;;
5022;SDS011;2530;47.990;7.866;2023-07-20T00:10:45;2.83;;;2.50;;
5022;SDS011;2530;47.990;7.866;2023-07-20T00:13:11;3.50;;;2.90;;
5022;SDS011;2530;47.990;7.866;2023-07-20T00:15:37;3.45;;;2.40;;
5022;SDS011;2530;47.990;7.866;2023-07-20T00:18:03;3.10;;;2.70;;
5022;SDS011;2530;47.990;7.866;2023-07-20T00:20:29;5.65;;;3.10;;
5022;SDS011;2530;47.990;7.866;2023-07-20T00:22:55;4.65;;;2.90;;
5022;SDS011;2530;47.990;7.866;2023-07-20T00:25:22;3.47;;;2.88;;
5022;SDS011;2530;47.990;7.866;2023-07-20T00:27:48;3.47;;;2.80;;
5022;SDS011;2530;47.990;7.866;2023-07-20T00:30:14;3.90;;;2.80;;
5022;SDS011;2530;47.990;7.866;2023-07-20T00:32:40;4.70;;;2.85;;
5022;SDS011;2530;47.990;7.866;2023-07-20T00:35:06;3.70;;;2.60;;
5022;SDS011;2530;47.990;7.866;2023-07-20T00:37:32;4.53;;;2.60;;
5022;SDS011;2530;47.990;7.866;2023-07-20T00:39:57;3.92;;;2.70;;
5022;SDS011;2530;47.990;7.866;2023-07-20T00:42:23;2.63;;;2.43;;
5022;SDS011;2530;47.990;7.866;2023-07-20T00:44:49;5.20;;;2.70;;
5022;SDS011;2530;47.990;7.866;2023-07-20T00:47:14;4.33;;;2.93;;
5022;SDS011;2530;47.990;7.866;2023-07-20T00:49:40;4.10;;;2.92;;
5022;SDS011;2530;47.990;7.866;2023-07-20T00:52:06;3.20;;;2.80;;
5022;SDS011;2530;47.990;7.866;2023-07-20T00:54:32;4.03;;;2.72;;
5022;SDS011;2530;47.990;7.866;2023-07-20T00:56:59;4.60;;;2.50;;
5022;SDS011;2530;47.990;7.866;2023-07-20T00:59:26;3.75;;;3.00;;
5022;SDS011;2530;47.990;7.866;2023-07-20T01:01:52;4.00;;;2.90;;
5022;SDS011;2530;47.990;7.866;2023-07-20T01:04:18;4.60;;;2.83;;
5022;SDS011;2530;47.990;7.866;2023-07-20T01:06:55;4.57;;;2.92;;
5022;SDS011;2530;47.990;7.866;2023-07-20T01:09:40;6.65;;;3.20;;
5022;SDS011;2530;47.990;7.866;2023-07-20T01:12:13;5.30;;;3.13;;
5022;SDS011;2530;47.990;7.866;2023-07-20T01:14:47;5.70;;;3.00;;
5022;SDS011;2530;47.990;7.866;2023-07-20T01:17:14;4.88;;;2.90;;
5022;SDS011;2530;47.990;7.866;2023-07-20T01:19:39;3.00;;;2.73;;
5022;SDS011;2530;47.990;7.866;2023-07-20T01:28:07;4.25;;;2.85;;
5022;SDS011;2530;47.990;7.866;2023-07-20T01:33:19;4.10;;;2.90;;
5022;SDS011;2530;47.990;7.866;2023-07-20T01:35:55;3.10;;;2.90;;
5022;SDS011;2530;47.990;7.866;2023-07-20T01:38:23;3.35;;;2.60;;
5022;SDS011;2530;47.990;7.866;2023-07-20T01:40:49;3.70;;;2.95;;
5022;SDS011;2530;47.990;7.866;2023-07-20T01:43:15;5.47;;;2.90;;
5022;SDS011;2530;47.990;7.866;2023-07-20T01:45:41;3.92;;;2.72;;
5022;SDS011;2530;47.990;7.866;2023-07-20T01:48:06;5.40;;;2.90;;
5022;SDS011;2530;47.990;7.866;2023-07-20T01:50:32;3.40;;;3.10;;
5022;SDS011;2530;47.990;7.866;2023-07-20T01:52:59;2.90;;;2.70;;
5022;SDS011;2530;47.990;7.866;2023-07-20T01:55:25;4.80;;;3.10;;
5022;SDS011;2530;47.990;7.866;2023-07-20T01:57:51;4.00;;;3.00;;
5022;SDS011;2530;47.990;7.866;2023-07-20T02:00:16;3.40;;;3.03;;
5022;SDS011;2530;47.990;7.866;2023-07-20T02:02:46;3.03;;;2.75;;
5022;SDS011;2530;47.990;7.866;2023-07-20T02:05:11;5.57;;;3.30;;
5022;SDS011;2530;47.990;7.866;2023-07-20T02:07:37;3.20;;;2.90;;
5022;SDS011;2530;47.990;7.866;2023-07-20T02:10:03;3.60;;;2.95;;
5022;SDS011;2530;47.990;7.866;2023-07-20T02:12:28;3.40;;;2.83;;
5022;SDS011;2530;47.990;7.866;2023-07-20T02:14:54;4.10;;;2.90;;
5022;SDS011;2530;47.990;7.866;2023-07-20T02:17:19;11.38;;;3.33;;
5022;SDS011;2530;47.990;7.866;2023-07-20T02:19:45;4.30;;;2.77;;
5022;SDS011;2530;47.990;7.866;2023-07-20T02:22:11;3.80;;;3.10;;
5022;SDS011;2530;47.990;7.866;2023-07-20T02:24:37;3.33;;;2.80;;
5022;SDS011;2530;47.990;7.866;2023-07-20T02:27:03;3.65;;;2.85;;
5022;SDS011;2530;47.990;7.866;2023-07-20T02:29:29;3.03;;;2.50;;
5022;SDS011;2530;47.990;7.866;2023-07-20T02:31:54;3.60;;;2.80;;
5022;SDS011;2530;47.990;7.866;2023-07-20T02:34:20;3.63;;;2.83;;
5022;SDS011;2530;47.990;7.866;2023-07-20T02:36:45;4.30;;;3.00;;
5022;SDS011;2530;47.990;7.866;2023-07-20T02:39:11;5.18;;;3.00;;
5022;SDS011;2530;47.990;7.866;2023-07-20T02:41:36;4.07;;;2.87;;
5022;SDS011;2530;47.990;7.866;2023-07-20T02:44:02;3.30;;;3.10;;
5022;SDS011;2530;47.990;7.866;2023-07-20T02:46:28;2.92;;;2.70;;
5022;SDS011;2530;47.990;7.866;2023-07-20T02:48:55;4.32;;;3.30;;
5022;SDS011;2530;47.990;7.866;2023-07-20T02:51:20;4.80;;;2.73;;
5022;SDS011;2530;47.990;7.866;2023-07-20T02:53:46;4.70;;;2.90;;
5022;SDS011;2530;47.990;7.866;2023-07-20T02:56:11;3.00;;;2.50;;
5022;SDS011;2530;47.990;7.866;2023-07-20T02:58:39;3.90;;;2.72;;
5022;SDS011;2530;47.990;7.866;2023-07-20T03:01:08;4.03;;;2.92;;
5022;SDS011;2530;47.990;7.866;2023-07-20T03:03:34;4.10;;;3.10;;
5022;SDS011;2530;47.990;7.866;2023-07-20T03:06:03;3.88;;;2.92;;
5022;SDS011;2530;47.990;7.866;2023-07-20T03:08:29;3.80;;;2.80;;
5022;SDS011;2530;47.990;7.866;2023-07-20T03:10:55;2.97;;;2.67;;
5022;SDS011;2530;47.990;7.866;2023-07-20T03:13:20;4.30;;;3.10;;
5022;SDS011;2530;47.990;7.866;2023-07-20T03:15:46;5.43;;;3.20;;
5022;SDS011;2530;47.990;7.866;2023-07-20T03:18:12;3.63;;;3.22;;
5022;SDS011;2530;47.990;7.866;2023-07-20T03:20:38;3.70;;;3.30;;
5022;SDS011;2530;47.990;7.866;2023-07-20T03:23:04;5.20;;;3.42;;
5022;SDS011;2530;47.990;7.866;2023-07-20T03:25:29;5.10;;;3.03;;
5022;SDS011;2530;47.990;7.866;2023-07-20T03:27:55;4.27;;;3.10;;
5022;SDS011;2530;47.990;7.866;2023-07-20T03:30:20;4.53;;;2.90;;
5022;SDS011;2530;47.990;7.866;2023-07-20T03:32:46;3.80;;;3.30;;
5022;SDS011;2530;47.990;7.866;2023-07-20T03:35:12;6.07;;;3.30;;
5022;SDS011;2530;47.990;7.866;2023-07-20T03:37:37;3.10;;;2.80;;
5022;SDS011;2530;47.990;7.866;2023-07-20T03:40:03;3.20;;;2.90;;
5022;SDS011;2530;47.990;7.866;2023-07-20T03:42:30;4.80;;;2.80;;
5022;SDS011;2530;47.990;7.866;2023-07-20T03:44:55;3.70;;;3.30;;
5022;SDS011;2530;47.990;7.866;2023-07-20T03:47:21;3.90;;;3.00;;
5022;SDS011;2530;47.990;7.866;2023-07-20T03:49:47;5.03;;;3.33;;
5022;SDS011;2530;47.990;7.866;2023-07-20T03:52:12;4.40;;;3.20;;
5022;SDS011;2530;47.990;7.866;2023-07-20T03:54:38;3.55;;;2.90;;
5022;SDS011;2530;47.990;7.866;2023-07-20T03:57:03;3.97;;;3.07;;
5022;SDS011;2530;47.990;7.866;2023-07-20T03:59:29;5.57;;;3.30;;
5022;SDS011;2530;47.990;7.866;2023-07-20T04:01:55;4.43;;;3.22;;
5022;SDS011;2530;47.990;7.866;2023-07-20T04:04:20;3.20;;;2.90;;
5022;SDS011;2530;47.990;7.866;2023-07-20T04:06:46;6.13;;;3.00;;
5022;SDS011;2530;47.990;7.866;2023-07-20T04:09:12;3.35;;;3.05;;
5022;SDS011;2530;47.990;7.866;2023-07-20T04:11:37;3.97;;;3.60;;
5022;SDS011;2530;47.990;7.866;2023-07-20T04:14:03;4.05;;;3.13;;
5022;SDS011;2530;47.990;7.866;2023-07-20T04:16:29;3.70;;;3.10;;
5022;SDS011;2530;47.990;7.866;2023-07-20T04:18:55;4.17;;;3.10;;
5022;SDS011;2530;47.990;7.866;2023-07-20T04:21:21;3.33;;;3.00;;
5022;SDS011;2530;47.990;7.866;2023-07-20T04:23:47;3.67;;;3.30;;
5022;SDS011;2530;47.990;7.866;2023-07-20T04:26:12;3.50;;;2.92;;
5022;SDS011;2530;47.990;7.866;2023-07-20T04:28:39;3.78;;;3.38;;
5022;SDS011;2530;47.990;7.866;2023-07-20T04:31:12;4.88;;;3.13;;
5022;SDS011;2530;47.990;7.866;2023-07-20T04:33:38;5.80;;;3.50;;
5022;SDS011;2530;47.990;7.866;2023-07-20T04:36:04;4.70;;;2.90;;
5022;SDS011;2530;47.990;7.866;2023-07-20T04:38:30;4.20;;;3.22;;
5022;SDS011;2530;47.990;7.866;2023-07-20T04:40:55;3.97;;;3.33;;
5022;SDS011;2530;47.990;7.866;2023-07-20T04:43:21;3.60;;;3.30;;
5022;SDS011;2530;47.990;7.866;2023-07-20T04:45:47;3.92;;;3.40;;
5022;SDS011;2530;47.990;7.866;2023-07-20T04:48:13;3.83;;;3.10;;
5022;SDS011;2530;47.990;7.866;2023-07-20T04:50:40;5.70;;;3.40;;
5022;SDS011;2530;47.990;7.866;2023-07-20T04:53:07;4.30;;;3.28;;
5022;SDS011;2530;47.990;7.866;2023-07-20T04:55:36;5.65;;;3.67;;
5022;SDS011;2530;47.990;7.866;2023-07-20T04:58:03;4.73;;;3.10;;
5022;SDS011;2530;47.990;7.866;2023-07-20T05:00:29;4.38;;;3.30;;
5022;SDS011;2530;47.990;7.866;2023-07-20T05:02:55;5.30;;;3.10;;
5022;SDS011;2530;47.990;7.866;2023-07-20T05:05:21;3.97;;;3.30;;
5022;SDS011;2530;47.990;7.866;2023-07-20T05:07:47;4.60;;;2.90;;
5022;SDS011;2530;47.990;7.866;2023-07-20T05:10:13;3.60;;;3.30;;
5022;SDS011;2530;47.990;7.866;2023-07-20T05:12:38;6.22;;;3.60;;
5022;SDS011;2530;47.990;7.866;2023-07-20T05:15:04;3.60;;;3.17;;
5022;SDS011;2530;47.990;7.866;2023-07-20T05:17:30;4.72;;;3.35;;
5022;SDS011;2530;47.990;7.866;2023-07-20T05:20:05;3.53;;;3.20;;
5022;SDS011;2530;47.990;7.866;2023-07-20T05:22:31;5.03;;;3.70;;
5022;SDS011;2530;47.990;7.866;2023-07-20T05:25:00;3.45;;;3.15;;
5022;SDS011;2530;47.990;7.866;2023-07-20T05:27:28;3.72;;;3.05;;
5022;SDS011;2530;47.990;7.866;2023-07-20T05:30:06;5.38;;;3.38;;
5022;SDS011;2530;47.990;7.866;2023-07-20T05:32:35;4.70;;;3.30;;
5022;SDS011;2530;47.990;7.866;2023-07-20T05:35:06;5.10;;;3.60;;
5022;SDS011;2530;47.990;7.866;2023-07-20T05:37:37;4.03;;;3.50;;
5022;SDS011;2530;47.990;7.866;2023-07-20T05:40:06;3.90;;;3.50;;
5022;SDS011;2530;47.990;7.866;2023-07-20T05:42:37;3.97;;;3.45;;
5022;SDS011;2530;47.990;7.866;2023-07-20T05:45:08;3.90;;;3.50;;
5022;SDS011;2530;47.990;7.866;2023-07-20T05:47:37;6.43;;;3.90;;
5022;SDS011;2530;47.990;7.866;2023-07-20T05:50:09;6.40;;;3.40;;
5022;SDS011;2530;47.990;7.866;2023-07-20T05:52:35;5.18;;;4.00;;
5022;SDS011;2530;47.990;7.866;2023-07-20T05:55:09;5.18;;;3.60;;
5022;SDS011;2530;47.990;7.866;2023-07-20T05:57:35;3.90;;;3.47;;
5022;SDS011;2530;47.990;7.866;2023-07-20T06:00:15;5.75;;;3.20;;
5022;SDS011;2530;47.990;7.866;2023-07-20T06:02:51;4.80;;;3.47;;
5022;SDS011;2530;47.990;7.866;2023-07-20T06:05:21;4.03;;;3.60;;
5022;SDS011;2530;47.990;7.866;2023-07-20T06:07:50;5.03;;;3.78;;
5022;SDS011;2530;47.990;7.866;2023-07-20T06:10:19;4.10;;;3.70;;
5022;SDS011;2530;47.990;7.866;2023-07-20T06:12:51;4.15;;;3.45;;
5022;SDS011;2530;47.990;7.866;2023-07-20T06:18:12;4.68;;;3.30;;
5022;SDS011;2530;47.990;7.866;2023-07-20T06:20:40;5.15;;;3.55;;
5022;SDS011;2530;47.990;7.866;2023-07-20T06:23:13;4.40;;;3.57;;
5022;SDS011;2530;47.990;7.866;2023-07-20T06:25:39;4.90;;;3.50;;
5022;SDS011;2530;47.990;7.866;2023-07-20T06:28:21;3.97;;;3.60;;
5022;SDS011;2530;47.990;7.866;2023-07-20T06:30:59;4.40;;;3.50;;
5022;SDS011;2530;47.990;7.866;2023-07-20T06:33:28;4.90;;;3.70;;
5022;SDS011;2530;47.990;7.866;2023-07-20T06:35:57;7.70;;;3.70;;
5022;SDS011;2530;47.990;7.866;2023-07-20T06:38:23;4.20;;;3.50;;
5022;SDS011;2530;47.990;7.866;2023-07-20T06:40:51;4.15;;;3.53;;
5022;SDS011;2530;47.990;7.866;2023-07-20T06:43:17;4.53;;;3.80;;
5022;SDS011;2530;47.990;7.866;2023-07-20T06:45:43;6.63;;;4.03;;
5022;SDS011;2530;47.990;7.866;2023-07-20T06:48:09;4.53;;;3.30;;
5022;SDS011;2530;47.990;7.866;2023-07-20T06:50:34;3.60;;;3.30;;
5022;SDS011;2530;47.990;7.866;2023-07-20T06:53:00;3.63;;;3.20;;
5022;SDS011;2530;47.990;7.866;2023-07-20T06:55:28;3.88;;;3.00;;
5022;SDS011;2530;47.990;7.866;2023-07-20T06:57:53;3.65;;;2.95;;
5022;SDS011;2530;47.990;7.866;2023-07-20T07:00:19;3.20;;;2.90;;
5022;SDS011;2530;47.990;7.866;2023-07-20T07:02:45;3.93;;;2.80;;
5022;SDS011;2530;47.990;7.866;2023-07-20T07:05:10;4.70;;;3.00;;
5022;SDS011;2530;47.990;7.866;2023-07-20T07:07:38;3.33;;;3.03;;
5022;SDS011;2530;47.990;7.866;2023-07-20T07:10:04;3.53;;;3.23;;
5022;SDS011;2530;47.990;7.866;2023-07-20T07:12:30;4.57;;;3.43;;
5022;SDS011;2530;47.990;7.866;2023-07-20T07:14:55;4.00;;;3.10;;
5022;SDS011;2530;47.990;7.866;2023-07-20T07:17:21;4.55;;;3.30;;
5022;SDS011;2530;47.990;7.866;2023-07-20T07:19:47;5.77;;;3.37;;
5022;SDS011;2530;47.990;7.866;2023-07-20T07:22:12;2.90;;;2.60;;
5022;SDS011;2530;47.990;7.866;2023-07-20T07:24:38;3.20;;;2.90;;
5022;SDS011;2530;47.990;7.866;2023-07-20T07:27:08;4.00;;;3.20;;
5022;SDS011;2530;47.990;7.866;2023-07-20T07:29:34;3.67;;;3.38;;
5022;SDS011;2530;47.990;7.866;2023-07-20T07:31:59;3.83;;;3.35;;
5022;SDS011;2530;47.990;7.866;2023-07-20T07:34:26;5.03;;;3.60;;
5022;SDS011;2530;47.990;7.866;2023-07-20T07:36:52;4.00;;;3.53;;
5022;SDS011;2530;47.990;7.866;2023-07-20T07:39:17;7.20;;;3.50;;
5022;SDS011;2530;47.990;7.866;2023-07-20T07:41:43;3.53;;;3.23;;
5022;SDS011;2530;47.990;7.866;2023-07-20T07:44:08;5.28;;;3.30;;
5022;SDS011;2530;47.990;7.866;2023-07-20T07:46:34;5.73;;;3.40;;
5022;SDS011;2530;47.990;7.866;2023-07-20T07:48:59;5.55;;;3.70;;
5022;SDS011;2530;47.990;7.866;2023-07-20T07:51:25;6.70;;;4.20;;
5022;SDS011;2530;47.990;7.866;2023-07-20T07:53:52;4.07;;;3.30;;
5022;SDS011;2530;47.990;7.866;2023-07-20T07:56:17;4.00;;;3.10;;
5022;SDS011;2530;47.990;7.866;2023-07-20T07:58:47;7.45;;;3.63;;
5022;SDS011;2530;47.990;7.866;2023-07-20T08:01:13;4.45;;;3.40;;
5022;SDS011;2530;47.990;7.866;2023-07-20T08:03:39;4.03;;;3.20;;
5022;SDS011;2530;47.990;7.866;2023-07-20T08:06:05;4.70;;;2.97;;
5022;SDS011;2530;47.990;7.866;2023-07-20T08:08:31;4.30;;;3.35;;
5022;SDS011;2530;47.990;7.866;2023-07-20T08:10:57;4.50;;;3.20;;
5022;SDS011;2530;47.990;7.866;2023-07-20T08:13:23;3.57;;;3.07;;
5022;SDS011;2530;47.990;7.866;2023-07-20T08:15:49;4.30;;;3.17;;
5022;SDS011;2530;47.990;7.866;2023-07-20T08:18:18;3.75;;;3.33;;
5022;SDS011;2530;47.990;7.866;2023-07-20T08:20:44;4.05;;;3.20;;
5022;SDS011;2530;47.990;7.866;2023-07-20T08:23:10;3.90;;;2.90;;
5022;SDS011;2530;47.990;7.866;2023-07-20T08:25:36;5.50;;;3.30;;
5022;SDS011;2530;47.990;7.866;2023-07-20T08:28:04;4.63;;;2.67;;
5022;SDS011;2530;47.990;7.866;2023-07-20T08:30:39;4.78;;;3.13;;
5022;SDS011;2530;47.990;7.866;2023-07-20T08:33:09;4.93;;;3.30;;
5022;SDS011;2530;47.990;7.866;2023-07-20T08:35:38;5.10;;;3.20;;
5022;SDS011;2530;47.990;7.866;2023-07-20T08:38:04;4.78;;;3.40;;
5022;SDS011;2530;47.990;7.866;2023-07-20T08:40:31;5.18;;;3.22;;
5022;SDS011;2530;47.990;7.866;2023-07-20T08:42:57;4.50;;;2.65;;
5022;SDS011;2530;47.990;7.866;2023-07-20T08:45:26;3.40;;;2.90;;
5022;SDS011;2530;47.990;7.866;2023-07-20T08:47:56;4.25;;;2.92;;
5022;SDS011;2530;47.990;7.866;2023-07-20T08:50:25;5.20;;;2.85;;
5022;SDS011;2530;47.990;7.866;2023-07-20T08:52:52;3.53;;;2.83;;
5022;SDS011;2530;47.990;7.866;2023-07-20T08:55:19;2.72;;;2.40;;
5022;SDS011;2530;47.990;7.866;2023-07-20T08:57:47;3.50;;;2.80;;
5022;SDS011;2530;47.990;7.866;2023-07-20T09:00:17;3.53;;;2.10;;
5022;SDS011;2530;47.990;7.866;2023-07-20T09:02:45;3.58;;;2.88;;
5022;SDS011;2530;47.990;7.866;2023-07-20T09:05:12;4.15;;;2.10;;
5022;SDS011;2530;47.990;7.866;2023-07-20T09:07:39;3.50;;;2.47;;
5022;SDS011;2530;47.990;7.866;2023-07-20T09:10:06;4.70;;;2.60;;
5022;SDS011;2530;47.990;7.866;2023-07-20T09:12:35;3.90;;;3.08;;
5022;SDS011;2530;47.990;7.866;2023-07-20T09:15:03;3.30;;;3.00;;
5022;SDS011;2530;47.990;7.866;2023-07-20T09:17:29;3.28;;;2.60;;
5022;SDS011;2530;47.990;7.866;2023-07-20T09:19:54;5.20;;;3.10;;
5022;SDS011;2530;47.990;7.866;2023-07-20T09:22:20;4.30;;;2.80;;
5022;SDS011;2530;47.990;7.866;2023-07-20T09:24:45;5.67;;;2.57;;
5022;SDS011;2530;47.990;7.866;2023-07-20T09:27:11;4.63;;;2.90;;
5022;SDS011;2530;47.990;7.866;2023-07-20T09:29:52;4.28;;;2.60;;
5022;SDS011;2530;47.990;7.866;2023-07-20T09:32:19;2.60;;;2.30;;
5022;SDS011;2530;47.990;7.866;2023-07-20T09:34:45;4.20;;;2.47;;
5022;SDS011;2530;47.990;7.866;2023-07-20T09:37:11;4.30;;;2.60;;
5022;SDS011;2530;47.990;7.866;2023-07-20T09:39:43;3.10;;;2.40;;
5022;SDS011;2530;47.990;7.866;2023-07-20T09:42:11;3.38;;;2.25;;
5022;SDS011;2530;47.990;7.866;2023-07-20T09:44:38;4.35;;;2.30;;
5022;SDS011;2530;47.990;7.866;2023-07-20T09:47:04;3.33;;;2.40;;
5022;SDS011;2530;47.990;7.866;2023-07-20T09:49:30;3.43;;;2.40;;
5022;SDS011;2530;47.990;7.866;2023-07-20T09:51:57;3.00;;;2.50;;
5022;SDS011;2530;47.990;7.866;2023-07-20T09:54:25;3.03;;;2.30;;
5022;SDS011;2530;47.990;7.866;2023-07-20T09:56:52;3.17;;;2.40;;
5022;SDS011;2530;47.990;7.866;2023-07-20T09:59:18;5.57;;;3.15;;
5022;SDS011;2530;47.990;7.866;2023-07-20T10:01:44;5.70;;;2.40;;
5022;SDS011;2530;47.990;7.866;2023-07-20T10:04:14;4.47;;;2.78;;
5022;SDS011;2530;47.990;7.866;2023-07-20T10:06:43;3.30;;;2.20;;
5022;SDS011;2530;47.990;7.866;2023-07-20T10:09:12;3.30;;;2.30;;
5022;SDS011;2530;47.990;7.866;2023-07-20T10:11:41;4.40;;;2.30;;
5022;SDS011;2530;47.990;7.866;2023-07-20T10:14:15;2.90;;;2.60;;
5022;SDS011;2530;47.990;7.866;2023-07-20T10:16:51;2.50;;;1.95;;
5022;SDS011;2530;47.990;7.866;2023-07-20T10:19:23;3.63;;;2.60;;
5022;SDS011;2530;47.990;7.866;2023-07-20T10:21:59;3.97;;;2.17;;
5022;SDS011;2530;47.990;7.866;2023-07-20T10:24:27;4.60;;;2.50;;
5022;SDS011;2530;47.990;7.866;2023-07-20T10:26:54;2.60;;;2.00;;
5022;SDS011;2530;47.990;7.866;2023-07-20T10:29:20;3.45;;;2.50;;
5022;SDS011;2530;47.990;7.866;2023-07-20T10:31:48;3.85;;;2.20;;
5022;SDS011;2530;47.990;7.866;2023-07-20T10:34:14;2.63;;;1.83;;
5022;SDS011;2530;47.990;7.866;2023-07-20T10:36:46;2.60;;;2.13;;
5022;SDS011;2530;47.990;7.866;2023-07-20T10:39:25;2.92;;;2.03;;
5022;SDS011;2530;47.990;7.866;2023-07-20T10:42:08;3.77;;;2.10;;
5022;SDS011;2530;47.990;7.866;2023-07-20T10:44:36;2.70;;;1.88;;
5022;SDS011;2530;47.990;7.866;2023-07-20T10:47:03;2.20;;;2.00;;
5022;SDS011;2530;47.990;7.866;2023-07-20T10:49:34;3.80;;;1.90;;
5022;SDS011;2530;47.990;7.866;2023-07-20T10:52:03;3.10;;;2.10;;
5022;SDS011;2530;47.990;7.866;2023-07-20T10:57:21;2.90;;;2.10;;
5022;SDS011;2530;47.990;7.866;2023-07-20T10:59:48;2.45;;;2.00;;
5022;SDS011;2530;47.990;7.866;2023-07-20T11:02:17;3.57;;;2.07;;
5022;SDS011;2530;47.990;7.866;2023-07-20T11:04:44;3.10;;;2.00;;
5022;SDS011;2530;47.990;7.866;2023-07-20T11:07:14;4.15;;;2.00;;
5022;SDS011;2530;47.990;7.866;2023-07-20T11:09:41;4.93;;;2.05;;
5022;SDS011;2530;47.990;7.866;2023-07-20T11:12:11;2.20;;;1.90;;
5022;SDS011;2530;47.990;7.866;2023-07-20T11:14:42;2.67;;;2.10;;
5022;SDS011;2530;47.990;7.866;2023-07-20T11:17:15;3.70;;;2.40;;
5022;SDS011;2530;47.990;7.866;2023-07-20T11:19:45;3.50;;;2.20;;
5022;SDS011;2530;47.990;7.866;2023-07-20T11:22:13;2.30;;;1.80;;
5022;SDS011;2530;47.990;7.866;2023-07-20T11:24:42;2.95;;;2.30;;
5022;SDS011;2530;47.990;7.866;2023-07-20T11:27:08;3.40;;;2.33;;
5022;SDS011;2530;47.990;7.866;2023-07-20T11:29:34;4.70;;;2.70;;
5022;SDS011;2530;47.990;7.866;2023-07-20T11:32:00;3.13;;;2.53;;
5022;SDS011;2530;47.990;7.866;2023-07-20T11:34:29;2.50;;;2.30;;
5022;SDS011;2530;47.990;7.866;2023-07-20T11:36:56;2.80;;;1.90;;
5022;SDS011;2530;47.990;7.866;2023-07-20T11:39:22;2.50;;;2.20;;
5022;SDS011;2530;47.990;7.866;2023-07-20T11:41:54;3.58;;;2.22;;
5022;SDS011;2530;47.990;7.866;2023-07-20T11:44:22;4.93;;;2.10;;
5022;SDS011;2530;47.990;7.866;2023-07-20T11:46:59;3.40;;;2.20;;
5022;SDS011;2530;47.990;7.866;2023-07-20T11:49:28;3.75;;;2.20;;
5022;SDS011;2530;47.990;7.866;2023-07-20T11:51:54;2.20;;;2.00;;
5022;SDS011;2530;47.990;7.866;2023-07-20T11:54:21;3.85;;;2.08;;
5022;SDS011;2530;47.990;7.866;2023-07-20T11:56:48;2.60;;;2.17;;
5022;SDS011;2530;47.990;7.866;2023-07-20T11:59:13;2.80;;;2.50;;
5022;SDS011;2530;47.990;7.866;2023-07-20T12:01:39;5.40;;;2.17;;
5022;SDS011;2530;47.990;7.866;2023-07-20T12:04:04;4.00;;;2.20;;
5022;SDS011;2530;47.990;7.866;2023-07-20T12:06:31;2.20;;;2.00;;
5022;SDS011;2530;47.990;7.866;2023-07-20T12:08:57;2.70;;;2.30;;
5022;SDS011;2530;47.990;7.866;2023-07-20T12:11:57;2.80;;;2.00;;
5022;SDS011;2530;47.990;7.866;2023-07-20T12:14:16;3.55;;;2.40;;
5022;SDS011;2530;47.990;7.866;2023-07-20T12:16:42;3.67;;;1.98;;
5022;SDS011;2530;47.990;7.866;2023-07-20T12:19:08;3.20;;;1.90;;
5022;SDS011;2530;47.990;7.866;2023-07-20T12:21:35;3.70;;;2.25;;
5022;SDS011;2530;47.990;7.866;2023-07-20T12:24:02;2.47;;;1.88;;
5022;SDS011;2530;47.990;7.866;2023-07-20T12:26:29;2.70;;;2.15;;
5022;SDS011;2530;47.990;7.866;2023-07-20T12:28:56;2.75;;;2.47;;
5022;SDS011;2530;47.990;7.866;2023-07-20T12:31:22;2.60;;;2.00;;
5022;SDS011;2530;47.990;7.866;2023-07-20T12:33:49;2.78;;;1.90;;
5022;SDS011;2530;47.990;7.866;2023-07-20T12:36:15;3.05;;;1.95;;
5022;SDS011;2530;47.990;7.866;2023-07-20T12:38:41;3.80;;;2.33;;
5022;SDS011;2530;47.990;7.866;2023-07-20T12:41:07;2.20;;;1.88;;
5022;SDS011;2530;47.990;7.866;2023-07-20T12:43:34;3.85;;;2.20;;
5022;SDS011;2530;47.990;7.866;2023-07-20T12:46:00;4.18;;;2.10;;
5022;SDS011;2530;47.990;7.866;2023-07-20T12:48:26;3.40;;;2.20;;
5022;SDS011;2530;47.990;7.866;2023-07-20T12:50:51;2.20;;;2.00;;
5022;SDS011;2530;47.990;7.866;2023-07-20T12:53:17;2.38;;;2.05;;
5022;SDS011;2530;47.990;7.866;2023-07-20T12:55:42;3.07;;;2.50;;
5022;SDS011;2530;47.990;7.866;2023-07-20T12:58:08;3.30;;;2.23;;
5022;SDS011;2530;47.990;7.866;2023-07-20T13:00:34;3.00;;;2.17;;
5022;SDS011;2530;47.990;7.866;2023-07-20T13:03:00;2.40;;;2.20;;
5022;SDS011;2530;47.990;7.866;2023-07-20T13:05:29;3.80;;;1.90;;
5022;SDS011;2530;47.990;7.866;2023-07-20T13:07:56;2.00;;;1.80;;
5022;SDS011;2530;47.990;7.866;2023-07-20T13:10:23;2.78;;;2.50;;
5022;SDS011;2530;47.990;7.866;2023-07-20T13:12:49;2.40;;;2.00;;
5022;SDS011;2530;47.990;7.866;2023-07-20T13:15:14;2.87;;;2.20;;
5022;SDS011;2530;47.990;7.866;2023-07-20T13:17:40;2.37;;;1.90;;
5022;SDS011;2530;47.990;7.866;2023-07-20T13:20:06;3.40;;;2.67;;
5022;SDS011;2530;47.990;7.866;2023-07-20T13:22:34;2.40;;;2.08;;
5022;SDS011;2530;47.990;7.866;2023-07-20T13:25:01;2.60;;;2.00;;
5022;SDS011;2530;47.990;7.866;2023-07-20T13:27:27;2.40;;;2.20;;
5022;SDS011;2530;47.990;7.866;2023-07-20T13:29:52;2.20;;;2.00;;
5022;SDS011;2530;47.990;7.866;2023-07-20T13:32:18;5.23;;;2.13;;
5022;SDS011;2530;47.990;7.866;2023-07-20T13:34:44;3.10;;;1.90;;
5022;SDS011;2530;47.990;7.866;2023-07-20T13:37:10;2.40;;;2.10;;
5022;SDS011;2530;47.990;7.866;2023-07-20T13:39:36;5.10;;;2.40;;
5022;SDS011;2530;47.990;7.866;2023-07-20T13:42:02;4.32;;;2.30;;
5022;SDS011;2530;47.990;7.866;2023-07-20T13:44:30;2.30;;;2.00;;
5022;SDS011;2530;47.990;7.866;2023-07-20T13:46:59;3.13;;;2.03;;
5022;SDS011;2530;47.990;7.866;2023-07-20T13:49:25;2.40;;;1.90;;
5022;SDS011;2530;47.990;7.866;2023-07-20T13:51:50;4.00;;;1.93;;
5022;SDS011;2530;47.990;7.866;2023-07-20T13:54:16;2.33;;;2.10;;
5022;SDS011;2530;47.990;7.866;2023-07-20T13:56:41;1.95;;;1.75;;
5022;SDS011;2530;47.990;7.866;2023-07-20T13:59:07;2.73;;;2.00;;
5022;SDS011;2530;47.990;7.866;2023-07-20T14:01:33;3.20;;;2.20;;
5022;SDS011;2530;47.990;7.866;2023-07-20T14:03:59;3.40;;;2.03;;
5022;SDS011;2530;47.990;7.866;2023-07-20T14:06:25;2.47;;;2.25;;
5022;SDS011;2530;47.990;7.866;2023-07-20T14:08:51;3.33;;;1.88;;
5022;SDS011;2530;47.990;7.866;2023-07-20T14:11:18;2.20;;;2.00;;
5022;SDS011;2530;47.990;7.866;2023-07-20T14:13:43;2.28;;;1.80;;
5022;SDS011;2530;47.990;7.866;2023-07-20T14:16:09;3.60;;;2.20;;
5022;SDS011;2530;47.990;7.866;2023-07-20T14:18:35;2.50;;;2.00;;
5022;SDS011;2530;47.990;7.866;2023-07-20T14:21:00;3.30;;;2.00;;
5022;SDS011;2530;47.990;7.866;2023-07-20T14:23:27;2.53;;;2.30;;
5022;SDS011;2530;47.990;7.866;2023-07-20T14:25:53;2.70;;;2.00;;
5022;SDS011;2530;47.990;7.866;2023-07-20T14:28:20;2.20;;;2.00;;
5022;SDS011;2530;47.990;7.866;2023-07-20T14:30:46;2.83;;;1.70;;
5022;SDS011;2530;47.990;7.866;2023-07-20T14:33:11;2.37;;;2.07;;
5022;SDS011;2530;47.990;7.866;2023-07-20T14:35:37;2.42;;;2.10;;
5022;SDS011;2530;47.990;7.866;2023-07-20T14:38:03;3.13;;;1.95;;
5022;SDS011;2530;47.990;7.866;2023-07-20T14:40:29;2.40;;;1.88;;
5022;SDS011;2530;47.990;7.866;2023-07-20T14:42:57;2.43;;;1.93;;
5022;SDS011;2530;47.990;7.866;2023-07-20T14:45:25;3.17;;;2.00;;
5022;SDS011;2530;47.990;7.866;2023-07-20T14:47:52;2.20;;;2.00;;
5022;SDS011;2530;47.990;7.866;2023-07-20T14:50:19;2.90;;;1.70;;
5022;SDS011;2530;47.990;7.866;2023-07-20T14:52:45;2.15;;;1.95;;
5022;SDS011;2530;47.990;7.866;2023-07-20T14:55:11;3.75;;;1.90;;
5022;SDS011;2530;47.990;7.866;2023-07-20T14:57:37;2.70;;;1.83;;
5022;SDS011;2530;47.990;7.866;2023-07-20T15:00:04;4.43;;;1.90;;
5022;SDS011;2530;47.990;7.866;2023-07-20T15:02:35;1.98;;;1.80;;
5022;SDS011;2530;47.990;7.866;2023-07-20T15:05:07;2.75;;;1.88;;
5022;SDS011;2530;47.990;7.866;2023-07-20T15:07:33;3.70;;;2.30;;
5022;SDS011;2530;47.990;7.866;2023-07-20T15:10:00;2.08;;;1.88;;
5022;SDS011;2530;47.990;7.866;2023-07-20T15:12:26;2.63;;;1.80;;
5022;SDS011;2530;47.990;7.866;2023-07-20T15:15:02;4.38;;;2.05;;
5022;SDS011;2530;47.990;7.866;2023-07-20T15:17:30;2.40;;;1.90;;
5022;SDS011;2530;47.990;7.866;2023-07-20T15:19:56;3.23;;;2.20;;
5022;SDS011;2530;47.990;7.866;2023-07-20T15:22:21;3.65;;;1.90;;
5022;SDS011;2530;47.990;7.866;2023-07-20T15:24:47;5.10;;;2.20;;
5022;SDS011;2530;47.990;7.866;2023-07-20T15:27:12;2.60;;;2.30;;
5022;SDS011;2530;47.990;7.866;2023-07-20T15:29:38;3.15;;;1.95;;